Time;durP1;ratioP1;P1;durP2;ratioP2;P2;SDS_P1;SDS_P2;PMS_P1;PMS_P2;Temp;Humidity;BMP_temperature;BMP_pressure;BME280_temperature;BME280_humidity;BME280_pressure;Samples;Min_cycle;Max_cycle;Signal;HPM_P1;HPM_P2
2022/06/28 00:01:52;;;;;;;12.93;10.15;;;24.00;99.90;;;;;;6244981;23;20218;-87
2022/06/28 00:04:20;;;;;;;12.25;10.55;;;23.90;99.90;;;;;;6245049;23;20167;-88
2022/06/28 00:06:48;;;;;;;15.43;11.70;;;23.80;99.90;;;;;;6244922;23;20194;-87
2022/06/28 00:09:16;;;;;;;15.35;11.90;;;23.70;1.00;;;;;;6245055;23;20156;-89
2022/06/28 00:11:45;;;;;;;13.88;12.32;;;23.60;1.00;;;;;;6244831;23;20187;-89
2022/06/28 00:16:58;;;;;;;16.98;13.88;;;23.50;1.00;;;;;;6245510;23;20472;-89
2022/06/28 00:19:25;;;;;;;17.35;14.68;;;23.40;1.00;;;;;;6245209;23;20160;-89
2022/06/28 00:21:52;;;;;;;18.23;16.33;;;23.30;1.00;;;;;;6244991;23;20164;-89
2022/06/28 00:24:19;;;;;;;17.88;15.98;;;23.20;67.40;;;;;;6244906;23;20164;-89
2022/06/28 00:26:48;;;;;;;19.92;17.83;;;23.20;99.90;;;;;;6244680;23;20455;-89
2022/06/28 00:29:16;;;;;;;23.55;19.75;;;23.00;1.00;;;;;;6244973;23;20157;-89
2022/06/28 00:31:43;;;;;;;25.60;20.70;;;23.00;1.00;;;;;;6245344;23;20180;-89
2022/06/28 00:34:10;;;;;;;27.30;22.63;;;22.90;54.80;;;;;;6245504;23;20176;-90
2022/06/28 00:36:37;;;;;;;27.17;24.23;;;22.90;99.90;;;;;;6244991;23;20164;-90
2022/06/28 00:39:05;;;;;;;28.67;25.55;;;22.80;1.00;;;;;;6245260;23;20160;-89
2022/06/28 00:41:32;;;;;;;30.40;26.08;;;22.80;1.00;;;;;;6245197;23;20167;-89
2022/06/28 00:44:00;;;;;;;29.90;25.13;;;22.80;99.90;;;;;;6244715;23;20167;-91
2022/06/28 00:46:29;;;;;;;28.58;24.17;;;22.70;1.00;;;;;;6248298;23;20156;-89
2022/06/28 00:48:56;;;;;;;26.02;22.77;;;22.70;1.00;;;;;;6245116;23;20239;-89
2022/06/28 00:51:25;;;;;;;27.70;23.95;;;22.70;1.00;;;;;;6245405;23;20191;-89
2022/06/28 00:53:53;;;;;;;26.83;22.10;;;22.70;20.20;;;;;;6247222;23;20230;-89
2022/06/28 00:56:20;;;;;;;29.42;23.38;;;22.70;34.30;;;;;;6247154;23;20452;-90
2022/06/28 00:58:47;;;;;;;26.70;22.38;;;22.60;99.90;;;;;;6247469;23;20469;-90
2022/06/28 01:01:16;;;;;;;26.00;22.85;;;22.60;99.90;;;;;;6247040;23;20482;-90
2022/06/28 01:03:43;;;;;;;26.60;23.70;;;22.60;99.90;;;;;;6246806;23;20171;-89
2022/06/28 01:06:11;;;;;;;28.10;24.05;;;22.70;99.90;;;;;;6246506;22;20190;-89
2022/06/28 01:08:38;;;;;;;30.00;24.67;;;22.70;99.90;;;;;;6247090;23;20168;-90
2022/06/28 01:13:47;;;;;;;38.80;26.45;;;22.70;99.90;;;;;;6246756;23;20160;-89
2022/06/28 01:16:16;;;;;;;34.15;27.73;;;22.70;99.90;;;;;;6247622;23;20167;-91
2022/06/28 01:18:43;;;;;;;;;;;22.70;99.90;;;;;;6248208;23;20180;-90
2022/06/28 01:21:13;;;;;;;30.13;26.70;;;22.70;99.90;;;;;;6247232;23;20382;-90
2022/06/28 01:23:44;;;;;;;34.05;27.60;;;22.70;99.90;;;;;;6247206;23;20156;-90
2022/06/28 01:26:12;;;;;;;33.90;26.93;;;22.70;98.90;;;;;;6247289;23;20163;-90
2022/06/28 01:28:39;;;;;;;32.83;26.70;;;22.60;1.00;;;;;;6246864;23;20664;-91
2022/06/28 01:31:07;;;;;;;33.45;25.80;;;22.60;6.10;;;;;;6246593;23;20179;-90
2022/06/28 01:33:36;;;;;;;30.73;23.50;;;22.60;1.00;;;;;;6246983;23;20469;-90
2022/06/28 01:36:04;;;;;;;31.30;23.45;;;22.60;1.00;;;;;;6246752;23;20532;-90
2022/06/28 01:38:32;;;;;;;24.77;21.65;;;22.60;1.00;;;;;;6246890;23;20161;-90
2022/06/28 01:41:01;;;;;;;27.88;21.98;;;22.50;1.00;;;;;;6247382;23;20164;-91
2022/06/28 01:43:31;;;;;;;29.83;22.60;;;22.50;1.00;;;;;;6247124;23;20156;-91
2022/06/28 01:45:59;;;;;;;;;;;22.40;1.00;;;;;;6246766;23;20529;-90
2022/06/28 01:48:26;;;;;;;;;;;22.40;1.00;;;;;;6247035;23;19911;-90
2022/06/28 01:50:53;;;;;;;;;;;22.30;1.00;;;;;;6247054;23;19915;-90
2022/06/28 01:53:20;;;;;;;;;;;22.30;1.00;;;;;;6246890;23;19912;-89
2022/06/28 01:55:48;;;;;;;;;;;22.30;1.00;;;;;;6247711;23;20207;-89
2022/06/28 01:58:16;;;;;;;;;;;22.30;1.00;;;;;;6247050;23;19918;-91
2022/06/28 02:00:43;;;;;;;;;;;22.20;1.00;;;;;;6247038;23;19915;-90
2022/06/28 02:03:11;;;;;;;;;;;22.20;1.00;;;;;;6246915;23;19958;-90
2022/06/28 02:05:38;;;;;;;;;;;22.20;1.00;;;;;;6246646;22;19918;-89
2022/06/28 02:08:05;;;;;;;;;;;22.20;76.70;;;;;;6246762;23;19911;-90
2022/06/28 02:10:33;;;;;;;;;;;22.10;79.00;;;;;;6247025;23;19935;-90
2022/06/28 02:12:59;;;;;;;;;;;22.10;1.00;;;;;;6246219;23;20327;-89
2022/06/28 02:15:28;;;;;;;;;;;22.10;1.00;;;;;;6246624;23;19919;-89
2022/06/28 02:17:57;;;;;;;;;;;22.10;1.00;;;;;;6247017;23;19918;-90
2022/06/28 02:20:24;;;;;;;;;;;22.00;1.00;;;;;;6246804;23;19911;-89
2022/06/28 02:22:51;;;;;;;;;;;22.00;1.00;;;;;;6246830;23;19911;-91
2022/06/28 02:25:19;;;;;;;;;;;21.90;1.00;;;;;;6246879;23;19990;-90
2022/06/28 02:27:47;;;;;;;;;;;21.90;1.00;;;;;;6247035;23;19934;-90
2022/06/28 02:30:14;;;;;;;;;;;21.90;1.00;;;;;;6247048;23;19965;-90
2022/06/28 02:32:42;;;;;;;;;;;21.90;1.00;;;;;;6246849;23;20300;-89
2022/06/28 02:40:38;;;;;;;;;;;21.80;1.00;;;;;;6246721;23;19918;-90
2022/06/28 02:43:05;;;;;;;;;;;21.80;1.00;;;;;;6246894;23;19911;-90
2022/06/28 02:45:33;;;;;;;;;;;21.80;1.00;;;;;;6246877;23;19911;-89
2022/06/28 02:48:01;;;;;;;;;;;21.80;1.00;;;;;;6246272;23;19916;-91
2022/06/28 02:50:29;;;;;;;;;;;21.70;1.00;;;;;;6246457;23;20307;-90
2022/06/28 02:52:56;;;;;;;;;;;21.70;1.00;;;;;;6247001;23;19950;-89
2022/06/28 02:55:23;;;;;;;;;;;21.60;1.00;;;;;;6246667;23;19925;-90
2022/06/28 02:57:49;;;;;;;;;;;21.50;1.00;;;;;;6247064;23;19911;-89
2022/06/28 03:00:18;;;;;;;;;;;21.50;1.00;;;;;;6246782;23;19911;-90
2022/06/28 03:02:46;;;;;;;;;;;21.50;1.00;;;;;;6247236;23;19912;-89
2022/06/28 03:05:15;;;;;;;;;;;21.50;1.00;;;;;;6249834;23;19915;-89
2022/06/28 03:07:42;;;;;;;;;;;21.40;53.70;;;;;;6249760;22;19912;-88
2022/06/28 03:10:10;;;;;;;;;;;21.30;99.90;;;;;;6249217;23;20365;-90
2022/06/28 03:12:37;;;;;;;;;;;21.30;99.90;;;;;;6249834;23;20008;-89
2022/06/28 03:15:04;;;;;;;;;;;21.20;1.00;;;;;;6249704;23;19990;-90
2022/06/28 03:17:31;;;;;;;;;;;21.00;1.00;;;;;;6251634;23;19922;-91
2022/06/28 03:19:57;;;;;;;;;;;21.00;99.90;;;;;;6250541;23;20329;-89
2022/06/28 03:22:26;;;;;;;;;;;20.90;99.90;;;;;;6249341;23;19915;-89
2022/06/28 03:24:53;;;;;;;;;;;20.80;1.00;;;;;;6252366;23;19923;-89
2022/06/28 03:27:20;;;;;;;;;;;20.80;1.00;;;;;;6250629;23;19911;-89
2022/06/28 03:29:47;;;;;;;;;;;20.70;70.10;;;;;;6248777;23;19911;-88
2022/06/28 03:32:14;;;;;;;;;;;20.60;99.90;;;;;;6251894;23;19919;-89
2022/06/28 03:34:40;;;;;;;;;;;20.60;1.00;;;;;;6249103;23;19916;-89
2022/06/28 03:37:07;;;;;;;;;;;20.50;1.00;;;;;;6248905;23;19912;-89
2022/06/28 03:39:36;;;;;;;;;;;20.40;1.00;;;;;;6247938;23;19959;-90
2022/06/28 03:42:03;;;;;;;;;;;20.40;68.20;;;;;;6249169;23;19919;-90
2022/06/28 03:44:30;;;;;;;;;;;20.40;99.90;;;;;;6249614;23;20269;-89
2022/06/28 03:46:56;;;;;;;;;;;20.40;99.90;;;;;;6248662;23;19912;-90
2022/06/28 03:49:23;;;;;;;;;;;20.40;99.90;;;;;;6247478;23;20284;-90
2022/06/28 03:51:50;;;;;;;;;;;20.40;1.00;;;;;;6248071;23;19954;-88
2022/06/28 03:54:17;;;;;;;20.13;16.95;;;20.30;1.00;;;;;;6246884;23;20046;-89
2022/06/28 03:56:46;;;;;;;18.48;15.77;;;20.30;1.00;;;;;;6247377;23;20572;-89
2022/06/28 03:59:13;;;;;;;20.73;16.48;;;20.40;1.00;;;;;;6247100;23;20167;-88
2022/06/28 04:01:40;;;;;;;24.23;17.33;;;20.40;1.00;;;;;;6246520;23;20164;-91
2022/06/28 04:04:07;;;;;;;20.27;17.48;;;20.40;1.00;;;;;;6246469;23;20165;-90
2022/06/28 04:06:35;;;;;;;21.98;17.67;;;20.40;1.00;;;;;;6248189;23;20226;-89
2022/06/28 04:09:02;;;;;;;;;;;20.40;1.00;;;;;;6250196;23;20524;-90
2022/06/28 04:11:29;;;;;;;;;;;20.40;99.90;;;;;;6250103;23;19911;-89
2022/06/28 04:13:58;;;;;;;;;;;20.40;99.90;;;;;;6252590;23;19911;-90
2022/06/28 04:16:25;;;;;;;;;;;20.40;99.90;;;;;;6250166;23;19922;-91
2022/06/28 04:18:52;;;;;;;;;;;20.50;99.90;;;;;;6251061;23;19941;-91
2022/06/28 04:21:20;;;;;;;;;;;20.40;99.90;;;;;;6251117;23;19982;-91
2022/06/28 04:23:47;;;;;;;;;;;20.40;99.90;;;;;;6251720;23;19934;-91
2022/06/28 04:26:14;;;;;;;;;;;20.40;99.90;;;;;;6252731;23;19962;-92
2022/06/28 04:28:42;;;;;;;17.70;15.57;;;20.40;99.90;;;;;;6253986;23;20050;-90
2022/06/28 04:31:10;;;;;;;;;;;20.50;99.90;;;;;;6253181;23;20164;-90
2022/06/28 04:33:37;;;;;;;;;;;20.40;99.90;;;;;;6251076;23;19919;-91
2022/06/28 04:39:18;;;;;;;19.92;16.42;;;20.50;1.00;;;;;;6259218;23;20486;-89
2022/06/28 04:41:45;;;;;;;20.60;18.25;;;20.50;99.90;;;;;;6250143;23;20474;-89
2022/06/28 04:44:12;;;;;;;20.30;17.42;;;20.50;99.90;;;;;;6250996;23;20263;-89
2022/06/28 04:46:40;;;;;;;20.67;18.13;;;20.40;99.90;;;;;;6249644;23;20160;-91
2022/06/28 04:49:07;;;;;;;20.60;18.40;;;20.50;1.00;;;;;;6249108;23;20168;-89
2022/06/28 04:51:35;;;;;;;23.05;18.33;;;20.50;1.00;;;;;;6249887;23;20172;-91
2022/06/28 04:54:02;;;;;;;19.35;17.20;;;20.50;1.00;;;;;;6247760;23;20516;-90
2022/06/28 04:56:29;;;;;;;19.85;17.75;;;20.50;99.90;;;;;;6247728;23;20157;-92
2022/06/28 04:58:56;;;;;;;19.02;16.80;;;20.50;1.00;;;;;;6249281;23;20161;-90
2022/06/28 05:01:23;;;;;;;18.83;16.48;;;20.60;1.00;;;;;;6249885;23;20167;-90
2022/06/28 05:03:52;;;;;;;19.88;16.35;;;20.60;1.00;;;;;;6252344;23;20177;-89
2022/06/28 05:06:19;;;;;;;19.20;16.33;;;20.70;1.00;;;;;;6248925;23;20545;-90
2022/06/28 05:08:46;;;;;;;18.05;15.43;;;20.70;1.00;;;;;;6245856;23;20168;-91
2022/06/28 05:11:13;;;;;;;19.35;15.00;;;20.80;99.90;;;;;;6245969;23;20160;-92
2022/06/28 05:13:40;;;;;;;16.33;14.52;;;20.90;99.90;;;;;;6246404;23;20463;-90
2022/06/28 05:16:07;;;;;;;17.50;13.32;;;21.00;1.00;;;;;;6245721;23;20653;-90
2022/06/28 05:18:34;;;;;;;16.42;13.82;;;21.10;99.90;;;;;;6245964;23;20168;-90
2022/06/28 05:21:02;;;;;;;15.95;13.50;;;21.30;99.90;;;;;;6245681;23;20161;-89
2022/06/28 05:23:29;;;;;;;15.45;13.82;;;21.40;1.00;;;;;;6247364;23;20160;-89
2022/06/28 05:25:57;;;;;;;13.43;12.07;;;21.40;99.90;;;;;;6244782;23;20222;-90
2022/06/28 05:28:24;;;;;;;14.00;11.82;;;21.50;1.00;;;;;;6248043;23;20165;-92
2022/06/28 05:30:51;;;;;;;11.73;10.52;;;21.50;1.00;;;;;;6245700;23;20164;-89
2022/06/28 05:33:18;;;;;;;12.00;10.80;;;21.50;99.90;;;;;;6245280;23;20215;-90
2022/06/28 05:35:45;;;;;;;12.02;10.77;;;21.50;26.30;;;;;;6247215;23;20459;-89
2022/06/28 05:38:14;;;;;;;14.30;11.50;;;21.50;1.00;;;;;;6247811;23;20171;-89
2022/06/28 05:40:41;;;;;;;14.43;10.38;;;21.40;1.00;;;;;;6255632;23;20625;-88
2022/06/28 05:43:08;;;;;;;12.07;10.80;;;21.40;1.00;;;;;;6247298;23;20157;-89
2022/06/28 05:45:58;;;;;;;10.40;9.32;;;21.40;1.00;;;;;;6264818;23;20152;-94
2022/06/28 05:48:39;;;;;;;14.60;9.63;;;21.40;1.00;;;;;;6274048;23;20168;-90
2022/06/28 05:51:11;;;;;;;14.95;10.95;;;21.40;1.00;;;;;;6273933;22;20175;-92
2022/06/28 05:53:55;;;;;;;10.02;8.50;;;21.40;1.00;;;;;;6273840;23;20184;-92
2022/06/28 05:56:29;;;;;;;9.80;7.75;;;21.40;99.90;;;;;;6274107;23;20204;-90
2022/06/28 05:59:21;;;;;;;9.77;7.75;;;21.40;99.90;;;;;;6271925;23;20174;-91
2022/06/28 06:01:59;;;;;;;9.50;7.50;;;21.40;99.90;;;;;;6273681;23;20164;-89
2022/06/28 06:04:59;;;;;;;8.70;7.78;;;21.50;99.90;;;;;;6273278;23;20154;-92
2022/06/28 06:07:26;;;;;;;9.13;7.10;;;21.50;53.30;;;;;;6256858;22;20496;-89
2022/06/28 06:10:05;;;;;;;8.63;6.35;;;21.40;1.00;;;;;;6260524;23;20164;-91
2022/06/28 06:12:49;;;;;;;7.25;6.20;;;21.40;99.90;;;;;;6274004;23;20156;-91
2022/06/28 06:15:16;;;;;;;7.25;6.47;;;21.40;1.00;;;;;;6260374;23;20164;-89
2022/06/28 06:17:43;;;;;;;5.63;5.13;;;21.50;1.00;;;;;;6246583;23;20160;-89
2022/06/28 06:20:18;;;;;;;5.50;5.00;;;21.70;14.50;;;;;;6252230;23;20160;-93
2022/06/28 06:22:49;;;;;;;;;;;22.00;1.00;;;;;;6274172;23;20443;-92
2022/06/28 06:25:18;;;;;;;16.27;10.82;;;22.30;1.00;;;;;;6247140;23;20644;-87
2022/06/28 06:27:46;;;;;;;6.10;5.20;;;22.90;1.00;;;;;;6246831;23;20169;-88
2022/06/28 06:30:14;;;;;;;8.65;6.80;;;23.50;99.90;;;;;;6246885;23;20336;-87
2022/06/28 06:35:44;;;;;;;17.42;11.18;;;24.20;1.00;;;;;;6270091;23;20164;-91
2022/06/28 06:38:27;;;;;;;16.45;10.07;;;24.40;99.90;;;;;;6273175;22;20185;-95
2022/06/28 06:46:40;;;;;;;12.30;7.47;;;24.40;99.90;;;;;;6257813;23;20168;-91
2022/06/28 06:49:08;;;;;;;10.90;8.45;;;24.30;3.90;;;;;;6249458;23;20156;-88
2022/06/28 06:51:48;;;;;;;11.93;8.30;;;24.10;26.60;;;;;;6270119;22;20191;-93
2022/06/28 06:54:31;;;;;;;8.38;7.15;;;24.00;1.00;;;;;;6273784;22;20198;-91
2022/06/28 06:56:59;;;;;;;11.45;7.03;;;23.80;1.00;;;;;;6264724;23;20183;-89
2022/06/28 06:59:26;;;;;;;8.43;6.90;;;23.80;99.90;;;;;;6246011;23;20177;-89
2022/06/28 07:01:54;;;;;;;14.85;10.13;;;23.70;99.90;;;;;;6246238;23;20175;-90
2022/06/28 07:04:30;;;;;;;23.48;12.68;;;23.60;99.90;;;;;;6259016;23;20162;-90
2022/06/28 07:06:57;;;;;;;17.88;10.65;;;23.40;99.90;;;;;;6261999;23;20214;-89
2022/06/28 07:09:25;;;;;;;14.65;9.95;;;23.30;99.90;;;;;;6245927;23;20164;-89
2022/06/28 07:11:52;;;;;;;10.15;7.15;;;23.20;99.90;;;;;;6246097;23;20156;-89
2022/06/28 07:14:41;;;;;;;11.40;8.52;;;23.00;99.90;;;;;;6267225;23;20172;-92
2022/06/28 07:17:08;;;;;;;10.05;7.35;;;22.90;1.00;;;;;;6262506;23;20160;-87
2022/06/28 07:19:35;;;;;;;9.45;7.47;;;22.90;1.00;;;;;;6245653;23;20614;-89
2022/06/28 07:22:14;;;;;;;13.80;10.85;;;22.90;24.80;;;;;;6264513;23;20160;-92
2022/06/28 07:25:07;;;;;;;12.50;9.98;;;22.90;72.30;;;;;;6272300;23;20217;-93
2022/06/28 07:27:37;;;;;;;17.25;11.55;;;23.00;1.00;;;;;;6273164;23;20171;-93
2022/06/28 07:30:24;;;;;;;22.58;13.48;;;22.90;1.00;;;;;;6197354;23;20170;-92
2022/06/28 07:32:51;;;;;;;26.92;15.07;;;22.80;37.90;;;;;;6249261;23;20157;-89
2022/06/28 07:35:18;;;;;;;23.95;16.27;;;22.70;1.00;;;;;;6245524;23;20188;-88
2022/06/28 07:37:46;;;;;;;20.05;13.65;;;22.60;33.30;;;;;;6245628;23;20216;-89
2022/06/28 07:40:13;;;;;;;15.20;11.63;;;22.50;99.90;;;;;;6257534;23;20160;-90
2022/06/28 07:42:41;;;;;;;15.52;11.30;;;22.50;99.90;;;;;;6245659;23;20470;-88
2022/06/28 07:45:10;;;;;;;11.90;9.13;;;22.40;99.90;;;;;;6245486;23;20172;-87
2022/06/28 07:47:37;;;;;;;16.13;10.90;;;22.50;99.90;;;;;;6245192;23;20489;-86
2022/06/28 07:52:49;;;;;;;11.25;8.70;;;22.50;1.00;;;;;;6245252;23;20148;-87
2022/06/28 07:55:16;;;;;;;18.73;10.82;;;22.50;99.90;;;;;;6245425;23;20188;-87
2022/06/28 07:57:43;;;;;;;14.00;8.55;;;22.40;99.90;;;;;;6245314;23;20160;-86
2022/06/28 08:00:12;;;;;;;22.08;13.30;;;22.40;99.90;;;;;;6245399;23;20164;-86
2022/06/28 08:02:39;;;;;;;;;;;22.30;6.40;;;;;;6245804;23;20478;-87
2022/06/28 08:05:07;;;;;;;27.10;17.10;;;22.20;1.00;;;;;;6245346;23;20340;-86
2022/06/28 08:07:34;;;;;;;17.00;10.43;;;22.10;1.00;;;;;;6245904;23;20180;-87
2022/06/28 08:10:13;;;;;;;22.80;12.40;;;22.00;99.90;;;;;;6245250;23;20499;-91
2022/06/28 08:12:49;;;;;;;16.92;11.63;;;22.00;99.90;;;;;;6245823;23;20156;-90
2022/06/28 08:15:26;;;;;;;13.85;9.75;;;22.00;1.00;;;;;;6246139;23;20494;-90
2022/06/28 08:17:54;;;;;;;9.77;6.85;;;22.00;1.00;;;;;;6245761;23;20606;-93
2022/06/28 08:20:25;;;;;;;6.40;5.75;;;22.10;1.00;;;;;;6246415;23;20214;-92
2022/06/28 08:22:53;;;;;;;;;;;22.10;99.90;;;;;;6247068;23;20474;-93
2022/06/28 08:25:20;;;;;;;;;;;22.00;99.90;;;;;;6246358;23;19992;-91
2022/06/28 08:27:53;;;;;;;6.75;5.57;;;21.90;99.90;;;;;;6246968;23;20357;-92
2022/06/28 08:30:23;;;;;;;8.93;7.15;;;21.80;99.90;;;;;;6246245;23;20172;-91
2022/06/28 08:32:57;;;;;;;9.35;6.63;;;21.70;99.90;;;;;;6247467;23;20262;-93
2022/06/28 08:35:34;;;;;;;14.18;5.95;;;21.70;99.90;;;;;;6247145;23;20184;-91
2022/06/28 08:38:05;;;;;;;9.63;6.75;;;21.70;99.90;;;;;;6247561;23;20160;-92
2022/06/28 08:40:33;;;;;;;10.90;6.65;;;21.60;1.00;;;;;;6247370;23;20544;-92
2022/06/28 08:43:03;;;;;;;9.73;5.78;;;21.70;1.00;;;;;;6248125;23;20164;-90
2022/06/28 08:45:44;;;;;;;5.90;5.20;;;21.80;1.00;;;;;;6247172;23;20483;-91
2022/06/28 08:48:23;;;;;;;9.25;6.85;;;21.90;1.00;;;;;;6247415;23;20167;-93
2022/06/28 08:50:59;;;;;;;10.43;6.35;;;22.00;1.00;;;;;;6247988;23;20633;-92
2022/06/28 08:53:50;;;;;;;12.98;8.43;;;22.00;1.00;;;;;;6247217;23;20156;-91
2022/06/28 08:56:20;;;;;;;9.65;6.40;;;22.20;1.00;;;;;;6247143;23;20527;-92
2022/06/28 08:58:52;;;;;;;10.18;7.38;;;22.20;1.00;;;;;;6246485;23;20160;-91
2022/06/28 09:01:21;;;;;;;6.97;5.75;;;22.30;1.00;;;;;;6248439;23;20164;-90
2022/06/28 09:03:55;;;;;;;11.40;6.75;;;22.50;1.00;;;;;;6248355;23;20236;-90
2022/06/28 09:06:38;;;;;;;7.97;5.22;;;22.60;1.00;;;;;;6247028;22;20662;-90
2022/06/28 09:09:16;;;;;;;6.22;5.22;;;22.60;1.00;;;;;;6243699;23;20243;-93
2022/06/28 09:11:51;;;;;;;8.27;5.70;;;22.60;1.00;;;;;;6247356;23;20163;-93
2022/06/28 09:14:29;;;;;;;9.30;7.07;;;22.60;1.00;;;;;;6249772;23;20266;-90
2022/06/28 09:17:28;;;;;;;6.93;4.85;;;22.60;1.00;;;;;;6219309;23;20199;-91
2022/06/28 09:20:09;;;;;;;5.00;4.50;;;22.50;1.00;;;;;;6221278;23;20157;-91
2022/06/28 09:22:41;;;;;;;8.82;4.78;;;22.50;1.00;;;;;;6222057;23;20157;-93
2022/06/28 09:25:16;;;;;;;7.75;5.55;;;22.50;1.00;;;;;;6222011;23;20216;-93
2022/06/28 09:27:49;;;;;;;8.48;5.05;;;22.40;99.90;;;;;;6220502;23;20202;-92
2022/06/28 09:30:21;;;;;;;8.15;4.68;;;22.40;1.00;;;;;;6220007;23;20165;-91
2022/06/28 09:32:55;;;;;;;8.40;6.57;;;22.30;1.00;;;;;;6219939;23;20208;-90
2022/06/28 09:35:32;;;;;;;7.45;5.38;;;22.40;1.00;;;;;;6220342;23;20215;-91
2022/06/28 09:38:03;;;;;;;5.85;4.50;;;22.40;1.00;;;;;;6221059;23;20168;-93
2022/06/28 09:40:36;;;;;;;5.47;4.90;;;22.50;1.00;;;;;;6220527;23;20220;-92
2022/06/28 09:43:13;;;;;;;6.00;4.93;;;22.50;1.00;;;;;;6220531;23;20238;-91
2022/06/28 09:45:47;;;;;;;7.43;5.03;;;22.50;1.00;;;;;;6220847;23;20156;-88
2022/06/28 09:48:35;;;;;;;6.78;4.53;;;22.50;1.00;;;;;;6221958;23;20528;-94
2022/06/28 09:51:09;;;;;;;5.32;4.72;;;22.60;1.00;;;;;;6223834;23;20164;-93
2022/06/28 09:53:45;;;;;;;6.50;4.88;;;22.80;99.90;;;;;;6222399;23;20161;-91
2022/06/28 09:56:47;;;;;;;7.18;6.38;;;22.90;1.00;;;;;;6223409;23;20218;-92
2022/06/28 09:59:33;;;;;;;7.53;5.70;;;23.10;1.00;;;;;;6224146;23;20166;-93
2022/06/28 10:02:04;;;;;;;4.82;4.32;;;23.00;99.90;;;;;;6221464;23;20199;-92
2022/06/28 10:04:34;;;;;;;5.88;4.85;;;22.90;99.90;;;;;;6222612;23;20162;-92
2022/06/28 10:07:06;;;;;;;5.78;4.15;;;22.90;49.60;;;;;;6220759;23;20231;-94
2022/06/28 10:09:52;;;;;;;5.55;3.83;;;22.90;83.60;;;;;;6218972;23;20512;-94
2022/06/28 10:15:23;;;;;;;6.13;3.40;;;23.10;1.00;;;;;;6221438;23;20220;-92
2022/06/28 10:18:18;;;;;;;6.10;3.78;;;23.10;1.00;;;;;;6221072;23;20160;-93
2022/06/28 10:20:57;;;;;;;3.72;3.25;;;23.20;1.00;;;;;;6220196;23;20165;-91
2022/06/28 10:23:33;;;;;;;3.60;3.25;;;23.20;1.00;;;;;;6219743;23;20157;-92
2022/06/28 10:26:26;;;;;;;4.65;3.30;;;23.20;99.90;;;;;;6220135;23;20227;-92
2022/06/28 10:29:09;;;;;;;4.55;3.00;;;23.30;99.90;;;;;;6219552;23;20614;-91
2022/06/28 10:31:42;;;;;;;5.50;3.03;;;23.30;99.90;;;;;;6220446;23;20161;-89
2022/06/28 10:34:16;;;;;;;4.20;3.08;;;23.30;99.90;;;;;;6223121;23;20599;-91
2022/06/28 10:36:58;;;;;;;5.93;4.85;;;23.40;99.90;;;;;;6222620;23;20163;-93
2022/06/28 10:39:38;;;;;;;3.10;2.40;;;23.60;99.90;;;;;;6221638;23;20619;-90
2022/06/28 10:42:24;;;;;;;3.78;2.33;;;23.90;1.00;;;;;;6220448;23;20163;-91
2022/06/28 10:45:12;;;;;;;3.72;2.05;;;24.20;1.00;;;;;;6220501;23;20177;-92
2022/06/28 10:48:10;;;;;;;3.78;2.35;;;24.30;99.90;;;;;;6220241;23;20176;-93
2022/06/28 10:50:59;;;;;;;2.33;2.13;;;24.40;99.90;;;;;;6224370;23;20171;-93
2022/06/28 10:53:54;;;;;;;5.85;2.20;;;24.50;99.90;;;;;;6220279;23;20192;-93
2022/06/28 10:56:28;;;;;;;2.30;2.10;;;24.60;99.90;;;;;;6222226;23;20207;-91
2022/06/28 10:59:09;;;;;;;;;;;24.90;1.00;;;;;;6221145;23;20333;-90
2022/06/28 11:02:01;;;;;;;3.30;2.03;;;25.00;1.00;;;;;;6221005;23;20459;-91
2022/06/28 11:04:41;;;;;;;2.57;2.10;;;25.10;1.00;;;;;;6220268;23;20196;-91
2022/06/28 11:07:41;;;;;;;3.15;2.33;;;25.10;1.00;;;;;;6219292;23;20558;-92
2022/06/28 11:10:24;;;;;;;3.95;2.20;;;25.20;1.00;;;;;;6218343;23;20176;-91
2022/06/28 11:13:12;;;;;;;2.75;2.40;;;25.40;1.00;;;;;;6220789;23;20199;-93
2022/06/28 11:15:47;;;;;;;2.40;2.20;;;25.40;1.00;;;;;;6220529;23;20183;-93
2022/06/28 11:18:25;;;;;;;;;;;25.40;1.00;;;;;;6218077;23;20161;-92
2022/06/28 11:20:55;;;;;;;;;;;25.50;1.00;;;;;;6220644;23;19955;-90
2022/06/28 11:23:32;;;;;;;4.72;2.42;;;25.60;1.00;;;;;;6218546;23;20726;-89
2022/06/28 11:28:56;;;;;;;3.85;2.60;;;25.80;99.90;;;;;;6215081;23;20156;-88
2022/06/28 11:31:25;;;;;;;4.07;2.42;;;25.90;99.90;;;;;;6214977;23;20153;-89
2022/06/28 11:33:52;;;;;;;2.60;2.17;;;26.10;99.90;;;;;;6216250;23;20611;-87
2022/06/28 11:36:27;;;;;;;2.70;2.13;;;26.20;99.90;;;;;;6215428;23;20619;-88
2022/06/28 11:38:54;;;;;;;5.30;2.03;;;26.40;99.90;;;;;;6214953;23;20473;-87
2022/06/28 11:41:32;;;;;;;5.57;1.90;;;26.50;1.00;;;;;;6215405;23;20168;-87
2022/06/28 11:44:00;;;;;;;2.10;1.90;;;26.60;1.00;;;;;;6215003;23;20612;-87
2022/06/28 11:46:28;;;;;;;1.90;1.70;;;26.60;1.00;;;;;;6214794;23;20160;-87
2022/06/28 11:48:56;;;;;;;3.63;2.20;;;26.60;1.00;;;;;;6214967;23;20176;-88
2022/06/28 11:51:29;;;;;;;5.88;2.58;;;26.50;1.00;;;;;;6215100;23;20192;-87
2022/06/28 11:53:56;;;;;;;3.13;2.10;;;26.70;1.00;;;;;;6214951;23;20161;-88
2022/06/28 11:56:23;;;;;;;5.05;2.33;;;26.80;1.00;;;;;;6215076;23;20554;-88
2022/06/28 11:58:51;;;;;;;3.45;2.30;;;26.80;1.00;;;;;;6214967;23;20169;-87
2022/06/28 12:01:21;;;;;;;2.13;1.80;;;26.80;1.00;;;;;;6214747;23;20244;-89
2022/06/28 12:03:59;;;;;;;3.83;2.50;;;26.60;1.00;;;;;;6215162;23;20235;-87
2022/06/28 12:06:29;;;;;;;3.70;2.15;;;26.50;1.00;;;;;;6214709;23;20192;-88
2022/06/28 12:08:58;;;;;;;3.17;2.20;;;26.60;1.00;;;;;;6215234;23;20204;-89
2022/06/28 12:11:30;;;;;;;3.35;2.30;;;26.80;1.00;;;;;;6215625;23;20157;-89
2022/06/28 12:14:05;;;;;;;2.85;2.00;;;27.00;1.00;;;;;;6214875;23;20165;-89
2022/06/28 12:16:34;;;;;;;1.50;1.40;;;27.00;1.00;;;;;;6214892;23;20180;-88
2022/06/28 12:19:02;;;;;;;1.60;1.50;;;27.00;1.00;;;;;;6214689;23;20161;-88
2022/06/28 12:21:29;;;;;;;2.90;1.90;;;26.90;1.00;;;;;;6214589;23;20165;-88
2022/06/28 12:23:58;;;;;;;3.35;1.65;;;27.10;1.00;;;;;;6214806;23;20168;-88
2022/06/28 12:26:43;;;;;;;2.35;1.70;;;27.40;1.00;;;;;;6215168;23;20161;-89
2022/06/28 12:29:12;;;;;;;3.92;1.80;;;27.60;1.00;;;;;;6212161;23;20168;-89
2022/06/28 12:31:42;;;;;;;1.58;1.48;;;27.80;1.00;;;;;;6216091;23;20165;-87
2022/06/28 12:34:10;;;;;;;1.75;1.33;;;27.90;99.90;;;;;;6215074;23;20588;-88
2022/06/28 12:36:37;;;;;;;3.58;1.27;;;27.90;99.90;;;;;;6214490;23;20188;-87
2022/06/28 12:39:04;;;;;;;4.45;1.40;;;28.00;99.90;;;;;;6214602;23;20465;-87
2022/06/28 12:41:32;;;;;;;2.55;1.13;;;28.10;99.90;;;;;;6214920;23;20173;-88
2022/06/28 12:43:59;;;;;;;1.20;1.10;;;28.20;99.90;;;;;;6214054;23;20172;-88
2022/06/28 12:46:27;;;;;;;3.97;1.60;;;28.10;99.90;;;;;;6213871;23;20220;-87
2022/06/28 12:48:55;;;;;;;2.30;1.35;;;28.10;99.90;;;;;;6214276;23;20176;-88
2022/06/28 12:51:22;;;;;;;4.95;1.38;;;28.00;99.90;;;;;;6214670;23;20173;-86
2022/06/28 12:53:49;;;;;;;2.95;1.45;;;27.90;99.90;;;;;;6214583;23;20171;-87
2022/06/28 12:56:16;;;;;;;3.70;1.70;;;27.60;99.90;;;;;;6214040;23;20185;-86
2022/06/28 12:58:44;;;;;;;1.85;1.30;;;27.40;99.90;;;;;;6214238;23;20219;-87
2022/06/28 13:01:11;;;;;;;2.55;1.30;;;27.10;99.90;;;;;;6214033;23;20252;-86
2022/06/28 13:03:40;;;;;;;6.90;1.92;;;26.90;99.90;;;;;;6214396;23;20165;-86
2022/06/28 13:06:08;;;;;;;3.60;1.25;;;26.70;99.90;;;;;;6213930;23;20508;-86
2022/06/28 13:08:36;;;;;;;1.98;1.27;;;26.50;99.90;;;;;;6214036;23;20156;-86
2022/06/28 13:11:06;;;;;;;3.42;1.08;;;26.50;99.90;;;;;;6214014;23;20168;-93
2022/06/28 13:13:34;;;;;;;2.45;1.20;;;26.80;1.00;;;;;;6214364;23;20149;-92
2022/06/28 13:16:17;;;;;;;1.95;1.10;;;27.00;99.90;;;;;;6214459;23;20548;-91
2022/06/28 13:18:58;;;;;;;1.17;1.00;;;27.00;99.90;;;;;;6216899;23;20458;-89
2022/06/28 13:21:32;;;;;;;1.48;1.30;;;26.80;99.90;;;;;;6215957;23;20161;-91
2022/06/28 13:23:59;;;;;;;3.47;1.48;;;26.60;99.90;;;;;;6214857;23;20223;-88
2022/06/28 13:26:26;;;;;;;1.30;1.00;;;26.50;99.90;;;;;;6214597;23;20165;-87
2022/06/28 13:28:53;;;;;;;2.65;1.00;;;26.40;99.90;;;;;;6213805;23;20157;-86
2022/06/28 13:31:21;;;;;;;3.60;1.10;;;26.40;99.90;;;;;;6214290;23;20669;-86
2022/06/28 13:33:49;;;;;;;2.15;1.10;;;26.30;99.90;;;;;;6213993;23;20165;-86
2022/06/28 13:36:16;;;;;;;2.53;1.10;;;26.40;99.90;;;;;;6213866;23;20188;-87
2022/06/28 13:38:44;;;;;;;2.03;1.02;;;26.40;99.90;;;;;;6213628;23;20251;-88
2022/06/28 13:41:11;;;;;;;1.40;0.90;;;26.40;99.90;;;;;;6214227;23;20168;-88
2022/06/28 13:43:39;;;;;;;1.10;1.00;;;26.70;99.90;;;;;;6213535;23;20162;-87
2022/06/28 13:46:07;;;;;;;1.73;0.80;;;27.00;99.90;;;;;;6213853;23;20164;-87
2022/06/28 13:48:35;;;;;;;1.73;0.80;;;27.20;99.90;;;;;;6213797;23;20686;-88
2022/06/28 13:51:04;;;;;;;0.95;0.85;;;27.30;99.90;;;;;;6213772;23;20239;-88
2022/06/28 13:53:35;;;;;;;1.17;0.90;;;27.30;99.90;;;;;;6214432;23;20208;-88
2022/06/28 13:56:03;;;;;;;1.05;0.80;;;27.30;99.90;;;;;;6213918;23;20181;-89